Ana Sayfa
METAR-TAF:

METAR-TAF

Havaalanları :

Koror, Babeldaob, Palau

Enlem: 07-22N, Boylam: 134-32E, yükseklik: 54 m

Güncel hava durumu gözlemi

Rapor saat 23:50 UTC de 9 dakika önce yapıldı.
Rüzgar doğu/kuzeydoğudan 9 kt
Sıcaklık 29°C
Nem 79%
Basınç 1009 hPa
Görüş mesafesi: 24.1 km
1600 ft yükseklikte parçalı çok bulutlu, Yükselen kümülüs.
12000 ft yükseklikte parçalı çok bulutlu
30000 ft yükseklikte parçalı çok bulutlu

METAR: PTRO 252350Z 06009KT 15SM BKN016TCU BKN120 BKN300 29/25 A2981 RMK TCU ALQDS

Saat: 08:59 (23:59 UTC)

Tahmin

Rapor saat 23:25 UTC de 34 dakika önce yapıldı.
Ayın 26'si saat 00 UTC'den ayın 26'si saat 24 UTC'ye kadar geçerli Tahmin
Rüzgar doğu/kuzeydoğudan 10 kt
Görüş mesafesi: 10 km
1600 ft yükseklikte parçalı bulutlu
12000 ft yükseklikte parçalı çok bulutlu
Civarda sağanaklar

TAF: PTRO 252325Z 2600/2624 07010KT P6SM VCSH SCT016 BKN120

4.000'den fazla havaalanı için hava durumu gözlemleri ve tahminleri (METAR ve TAF raporları).

Kullanılabilir istasyonlar harita üzerinde sarı ve kırmızı noktalarla gösterilir.

İstasyonun adını görmek için fareyi noktanın üzerinde gezdirin.

Sonrasında hava gözlem ve tahminlerini görmek için tıklayın.

Haritayı değiştirmek için: yaklaştırmak için siyah artı işaretli yeşil düğmeye ve uzaklaştırmak için de eksi işaretli düğmeye hızla tıklayın; bitişik haritalar için yeşil okları kullanın.


METAR-TAF: